Time;durP1;ratioP1;P1;durP2;ratioP2;P2;SDS_P1;SDS_P2;PMS_P1;PMS_P2;Temp;Humidity;BMP_temperature;BMP_pressure;BME280_temperature;BME280_humidity;BME280_pressure;Samples;Min_cycle;Max_cycle;Signal;HPM_P1;HPM_P2
2021/09/23 00:01:34;;;;;;;5.90;3.97;;;11.10;99.90;;;;;;6227864;28;20551;-59
2021/09/23 00:04:39;;;;;;;5.77;3.73;;;11.10;99.90;;;;;;6218593;28;20487;-59
2021/09/23 00:07:44;;;;;;;7.20;4.57;;;11.10;99.90;;;;;;6208563;28;20448;-59
2021/09/23 00:10:47;;;;;;;5.60;4.30;;;11.10;99.90;;;;;;6205155;28;20551;-59
2021/09/23 00:13:51;;;;;;;9.67;4.57;;;11.00;99.90;;;;;;6218742;28;20503;-59
2021/09/23 00:16:55;;;;;;;5.40;4.03;;;10.80;99.90;;;;;;6215912;28;20457;-59
2021/09/23 00:19:58;;;;;;;7.00;5.00;;;10.80;99.90;;;;;;6209048;28;20478;-59
2021/09/23 00:23:02;;;;;;;5.10;3.70;;;10.80;99.90;;;;;;6218926;28;20785;-59
2021/09/23 00:26:05;;;;;;;6.07;4.10;;;10.80;99.90;;;;;;6222520;28;20468;-59
2021/09/23 00:29:09;;;;;;;5.20;4.50;;;10.90;99.90;;;;;;6216920;28;20464;-59
2021/09/23 00:32:13;;;;;;;4.10;3.70;;;10.90;99.90;;;;;;6216005;28;20507;-59
2021/09/23 00:35:17;;;;;;;4.73;4.27;;;10.90;99.90;;;;;;6215433;28;20471;-59
2021/09/23 00:38:20;;;;;;;6.93;3.80;;;10.90;99.90;;;;;;6204298;28;20476;-59
2021/09/23 00:41:23;;;;;;;5.17;4.23;;;10.80;99.90;;;;;;6203863;28;20945;-60
2021/09/23 00:44:27;;;;;;;3.73;3.43;;;10.80;99.90;;;;;;6204167;28;20480;-60
2021/09/23 00:47:31;;;;;;;6.23;4.13;;;10.80;99.90;;;;;;6204652;28;20906;-60
2021/09/23 00:50:34;;;;;;;7.33;4.50;;;10.80;99.90;;;;;;6203308;28;20820;-59
2021/09/23 00:53:39;;;;;;;4.63;4.13;;;10.70;99.90;;;;;;6194412;28;20490;-59
2021/09/23 00:56:42;;;;;;;5.93;3.73;;;10.70;99.90;;;;;;6188653;28;20473;-59
2021/09/23 00:59:47;;;;;;;9.00;4.70;;;10.60;99.90;;;;;;6193263;28;20478;-60
2021/09/23 01:02:50;;;;;;;5.17;4.47;;;10.70;99.90;;;;;;6190174;28;20487;-59
2021/09/23 01:05:54;;;;;;;5.23;4.10;;;10.70;99.90;;;;;;6192531;28;20478;-59
2021/09/23 01:08:58;;;;;;;6.93;5.03;;;10.80;99.90;;;;;;6190710;28;20469;-60
2021/09/23 01:12:02;;;;;;;3.93;3.30;;;10.70;99.90;;;;;;6190642;28;20492;-60
2021/09/23 01:15:08;;;;;;;4.80;4.00;;;10.70;99.90;;;;;;6191437;28;20556;-59
2021/09/23 01:18:11;;;;;;;6.93;4.33;;;10.50;99.90;;;;;;6189783;28;20828;-59
2021/09/23 01:21:16;;;;;;;5.67;4.80;;;10.60;99.90;;;;;;6193137;28;20487;-59
2021/09/23 01:24:19;;;;;;;4.23;3.60;;;10.60;99.90;;;;;;6188597;28;20469;-59
2021/09/23 01:27:22;;;;;;;4.50;4.07;;;10.60;99.90;;;;;;6193781;28;20480;-60
2021/09/23 01:30:26;;;;;;;4.20;3.50;;;10.50;99.90;;;;;;6178748;28;20541;-60
2021/09/23 01:33:29;;;;;;;4.10;3.80;;;10.50;99.90;;;;;;6178555;28;20481;-59
2021/09/23 01:36:34;;;;;;;6.67;3.83;;;10.50;99.90;;;;;;6178911;28;20473;-60
2021/09/23 01:39:38;;;;;;;5.60;4.33;;;10.60;99.90;;;;;;6178083;28;20528;-60
2021/09/23 01:42:43;;;;;;;6.13;4.20;;;10.50;99.90;;;;;;6178552;28;20474;-60
2021/09/23 01:45:47;;;;;;;5.00;4.50;;;10.40;99.90;;;;;;6178575;28;20474;-60
2021/09/23 01:48:50;;;;;;;4.10;3.70;;;10.30;99.90;;;;;;6178175;28;20484;-59
2021/09/23 01:51:55;;;;;;;4.67;3.83;;;10.30;99.90;;;;;;6177779;28;21036;-60
2021/09/23 01:54:58;;;;;;;3.90;3.50;;;10.30;99.90;;;;;;6177945;28;20568;-60
2021/09/23 01:58:01;;;;;;;4.50;3.80;;;10.30;99.90;;;;;;6178075;28;20485;-59
2021/09/23 02:01:04;;;;;;;4.57;4.17;;;10.30;99.90;;;;;;6198290;28;20985;-60
2021/09/23 02:04:08;;;;;;;6.17;4.40;;;10.30;99.90;;;;;;6201442;28;20480;-60
2021/09/23 02:07:12;;;;;;;5.03;4.50;;;10.30;99.90;;;;;;6201798;28;20472;-60
2021/09/23 02:10:16;;;;;;;6.37;4.40;;;10.30;99.90;;;;;;6202091;28;20476;-59
2021/09/23 02:13:19;;;;;;;4.23;3.93;;;10.30;99.90;;;;;;6202198;28;20480;-60
2021/09/23 02:16:22;;;;;;;4.90;4.40;;;10.30;99.90;;;;;;6201385;28;20472;-59
2021/09/23 02:19:26;;;;;;;7.77;5.07;;;10.20;99.90;;;;;;6201693;28;20487;-59
2021/09/23 02:22:31;;;;;;;4.40;4.00;;;10.20;99.90;;;;;;6201790;28;20474;-59
2021/09/23 02:25:35;;;;;;;3.87;3.53;;;10.30;99.90;;;;;;6201233;28;20461;-58
2021/09/23 02:28:38;;;;;;;5.43;4.93;;;10.30;99.90;;;;;;6201914;28;20451;-60
2021/09/23 02:31:42;;;;;;;6.53;4.30;;;10.30;99.90;;;;;;6196922;28;20983;-60
2021/09/23 02:34:45;;;;;;;4.37;3.97;;;10.30;99.90;;;;;;6201501;28;20495;-60
2021/09/23 02:37:49;;;;;;;4.13;3.60;;;10.20;99.90;;;;;;6202191;28;20453;-59
2021/09/23 02:40:53;;;;;;;6.40;4.13;;;10.20;99.90;;;;;;6201860;28;20473;-59
2021/09/23 02:43:56;;;;;;;5.43;4.30;;;10.10;99.90;;;;;;6201582;28;20548;-59
2021/09/23 02:46:59;;;;;;;4.20;3.90;;;10.10;99.90;;;;;;6202683;28;20612;-59
2021/09/23 02:50:03;;;;;;;5.20;3.73;;;10.00;99.90;;;;;;6201354;28;20468;-59
2021/09/23 02:53:07;;;;;;;6.50;4.80;;;10.00;99.90;;;;;;6200712;28;20965;-59
2021/09/23 02:56:11;;;;;;;5.87;4.53;;;10.00;99.90;;;;;;6201864;28;20483;-59
2021/09/23 02:59:14;;;;;;;5.10;4.40;;;9.90;99.90;;;;;;6201103;28;20476;-59
2021/09/23 03:02:18;;;;;;;9.70;4.73;;;9.90;99.90;;;;;;6201567;28;20484;-59
2021/09/23 03:05:22;;;;;;;7.30;5.40;;;9.90;99.90;;;;;;6201125;28;20473;-59
2021/09/23 03:08:26;;;;;;;5.20;4.70;;;9.80;99.90;;;;;;6200707;28;20468;-59
2021/09/23 03:11:29;;;;;;;9.33;5.33;;;9.80;99.90;;;;;;6200731;28;20492;-59
2021/09/23 03:14:33;;;;;;;5.20;4.03;;;9.80;99.90;;;;;;6203171;28;20507;-59
2021/09/23 03:17:36;;;;;;;4.33;3.93;;;9.80;99.90;;;;;;6205839;28;20815;-59
2021/09/23 03:20:41;;;;;;;4.63;3.83;;;9.80;99.90;;;;;;6205806;28;20487;-60
2021/09/23 03:23:45;;;;;;;5.60;4.50;;;9.70;99.90;;;;;;6205672;28;20642;-60
2021/09/23 03:26:49;;;;;;;5.87;4.57;;;9.60;99.90;;;;;;6205322;28;20499;-59
2021/09/23 03:29:52;;;;;;;7.30;5.10;;;9.60;99.90;;;;;;6205541;28;20969;-59
2021/09/23 03:32:55;;;;;;;6.50;4.63;;;9.60;99.90;;;;;;6205201;28;20468;-59
2021/09/23 03:35:58;;;;;;;6.83;5.00;;;9.50;99.90;;;;;;6200850;28;20472;-59
2021/09/23 03:39:04;;;;;;;5.67;4.57;;;9.40;99.90;;;;;;6205238;28;20480;-59
2021/09/23 03:42:08;;;;;;;5.03;4.53;;;9.40;99.90;;;;;;6205125;28;20488;-59
2021/09/23 03:45:12;;;;;;;7.13;4.97;;;9.50;99.90;;;;;;6205102;28;20471;-59
2021/09/23 03:48:15;;;;;;;5.80;4.83;;;9.50;99.90;;;;;;6204917;28;20472;-59
2021/09/23 03:51:18;;;;;;;8.17;4.77;;;9.40;99.90;;;;;;6204630;28;20491;-59
2021/09/23 03:54:23;;;;;;;5.87;5.27;;;9.40;99.90;;;;;;6205417;28;20823;-59
2021/09/23 03:57:27;;;;;;;4.60;3.90;;;9.40;99.90;;;;;;6204790;28;20468;-59
2021/09/23 04:00:30;;;;;;;7.23;4.47;;;9.50;99.90;;;;;;6205285;28;20480;-60
2021/09/23 04:03:33;;;;;;;4.67;4.27;;;9.50;99.90;;;;;;6205017;28;20991;-59
2021/09/23 04:06:42;;;;;;;5.63;4.47;;;9.50;99.90;;;;;;6204678;28;20476;-59
2021/09/23 04:09:47;;;;;;;6.37;4.23;;;9.50;99.90;;;;;;6204721;28;20500;-59
2021/09/23 04:12:52;;;;;;;9.13;6.17;;;9.60;99.90;;;;;;6204337;28;20488;-59
2021/09/23 04:15:55;;;;;;;5.87;5.27;;;9.60;99.90;;;;;;6204986;28;20563;-59
2021/09/23 04:18:59;;;;;;;7.67;6.97;;;9.60;99.90;;;;;;6204445;28;20519;-59
2021/09/23 04:22:02;;;;;;;6.40;5.80;;;9.60;99.90;;;;;;6204328;28;20473;-59
2021/09/23 04:25:07;;;;;;;7.63;5.53;;;9.60;99.90;;;;;;6203695;28;20483;-59
2021/09/23 04:28:10;;;;;;;7.57;4.90;;;9.50;99.90;;;;;;6204475;28;20568;-59
2021/09/23 04:31:14;;;;;;;6.13;4.93;;;9.40;99.90;;;;;;6204588;28;20496;-59
2021/09/23 04:34:17;;;;;;;5.27;4.77;;;9.30;99.90;;;;;;6204170;28;20477;-59
2021/09/23 04:37:24;;;;;;;7.23;4.40;;;9.10;99.90;;;;;;6203747;28;20485;-59
2021/09/23 04:40:29;;;;;;;5.80;4.50;;;9.20;99.90;;;;;;6203765;28;20489;-59
2021/09/23 04:43:32;;;;;;;5.30;4.63;;;9.20;99.90;;;;;;6204390;28;20985;-59
2021/09/23 04:46:36;;;;;;;8.13;4.97;;;9.30;99.90;;;;;;6228783;28;20451;-59
2021/09/23 04:49:40;;;;;;;8.73;6.03;;;9.30;99.90;;;;;;6228110;28;20768;-58
2021/09/23 04:52:43;;;;;;;5.37;4.30;;;9.30;99.90;;;;;;6227934;28;20489;-58
2021/09/23 04:55:48;;;;;;;8.07;5.20;;;9.30;99.90;;;;;;6228171;28;20496;-58
2021/09/23 04:58:51;;;;;;;6.43;4.97;;;9.30;99.90;;;;;;6228162;28;20444;-59
2021/09/23 05:01:54;;;;;;;5.57;4.40;;;9.40;99.90;;;;;;6227885;28;20493;-59
2021/09/23 05:04:58;;;;;;;5.30;4.80;;;9.40;99.90;;;;;;6227505;28;20811;-61
2021/09/23 05:08:01;;;;;;;6.30;5.27;;;9.30;99.90;;;;;;6227954;28;20471;-59
2021/09/23 05:11:06;;;;;;;5.33;4.80;;;9.30;99.90;;;;;;6227380;28;20468;-59
2021/09/23 05:14:09;;;;;;;6.10;5.20;;;9.30;99.90;;;;;;6227722;28;20474;-60
2021/09/23 05:17:12;;;;;;;5.50;4.97;;;9.30;99.90;;;;;;6227153;28;20856;-60
2021/09/23 05:20:16;;;;;;;9.40;6.03;;;9.20;99.90;;;;;;6227722;28;20486;-59
2021/09/23 05:23:19;;;;;;;8.33;5.33;;;9.30;99.90;;;;;;6227489;28;20476;-60
2021/09/23 05:26:24;;;;;;;6.70;5.17;;;9.40;99.90;;;;;;6227249;28;20482;-59
2021/09/23 05:29:27;;;;;;;7.03;4.60;;;9.40;99.90;;;;;;6227035;28;20827;-59
2021/09/23 05:32:30;;;;;;;5.90;4.63;;;9.50;99.90;;;;;;6226969;28;20808;-59
2021/09/23 05:35:34;;;;;;;5.90;5.00;;;9.60;99.90;;;;;;6226512;28;20498;-60
2021/09/23 05:38:37;;;;;;;10.50;5.50;;;9.70;99.90;;;;;;6225871;28;20470;-60
2021/09/23 05:41:42;;;;;;;7.10;5.53;;;9.70;99.90;;;;;;6226931;28;20476;-59
2021/09/23 05:44:45;;;;;;;7.00;6.27;;;9.80;99.90;;;;;;6222102;28;20472;-59
2021/09/23 05:47:48;;;;;;;5.47;4.97;;;9.90;99.90;;;;;;6226298;28;20479;-59
2021/09/23 05:50:51;;;;;;;8.17;5.37;;;9.90;99.90;;;;;;6226122;28;20490;-60
2021/09/23 05:53:55;;;;;;;6.90;5.47;;;9.90;99.90;;;;;;6226779;28;20482;-60
2021/09/23 05:56:59;;;;;;;10.20;5.80;;;10.00;99.90;;;;;;6226586;28;20468;-60
2021/09/23 06:00:06;;;;;;;9.10;6.17;;;10.00;99.90;;;;;;6226255;28;20472;-59
2021/09/23 06:03:09;;;;;;;10.40;5.67;;;10.00;99.90;;;;;;6226310;28;20591;-59
2021/09/23 06:06:12;;;;;;;8.97;6.80;;;10.10;99.90;;;;;;6226319;28;20523;-59
2021/09/23 06:09:16;;;;;;;8.83;6.10;;;10.20;99.90;;;;;;6226622;28;20492;-59
2021/09/23 06:12:21;;;;;;;12.20;6.53;;;10.30;99.90;;;;;;6226003;28;20482;-60
2021/09/23 06:15:24;;;;;;;10.40;6.77;;;10.40;99.90;;;;;;6226036;28;20994;-59
2021/09/23 06:18:27;;;;;;;10.67;6.60;;;10.60;99.90;;;;;;6226278;28;20486;-59
2021/09/23 06:21:31;;;;;;;8.07;6.67;;;10.70;99.90;;;;;;6225620;28;20476;-59
2021/09/23 06:24:34;;;;;;;8.40;6.50;;;10.70;99.90;;;;;;6225891;28;20925;-59
2021/09/23 06:27:39;;;;;;;11.10;6.20;;;10.80;99.90;;;;;;6225933;28;20554;-59
2021/09/23 06:30:42;;;;;;;9.57;6.80;;;10.80;99.90;;;;;;6225927;28;20487;-59
2021/09/23 06:33:45;;;;;;;9.63;7.00;;;10.90;99.90;;;;;;6225934;28;20475;-59
2021/09/23 06:36:49;;;;;;;10.63;6.97;;;11.00;99.90;;;;;;6225826;28;20491;-59
2021/09/23 06:39:52;;;;;;;19.13;7.53;;;11.20;99.90;;;;;;6225782;28;20471;-59
2021/09/23 06:42:57;;;;;;;10.43;7.00;;;11.40;99.90;;;;;;6225112;28;20482;-60
2021/09/23 06:46:00;;;;;;;10.10;7.27;;;11.60;99.90;;;;;;6225494;28;20472;-61
2021/09/23 06:49:04;;;;;;;11.27;6.40;;;11.90;99.90;;;;;;6220380;28;20928;-60
2021/09/23 06:52:07;;;;;;;9.60;6.60;;;12.20;99.90;;;;;;6224915;28;21101;-60
2021/09/23 06:55:11;;;;;;;13.03;6.23;;;12.60;99.90;;;;;;6225229;28;20467;-61
2021/09/23 06:58:16;;;;;;;8.30;5.43;;;14.80;99.00;;;;;;6225073;28;20482;-60
2021/09/23 07:01:19;;;;;;;9.50;5.60;;;18.00;93.80;;;;;;6225307;28;20893;-59
2021/09/23 07:04:24;;;;;;;10.73;6.53;;;20.70;83.70;;;;;;6225125;28;20607;-59
2021/09/23 07:07:27;;;;;;;8.40;6.37;;;22.80;70.60;;;;;;6225121;28;20475;-59
2021/09/23 07:10:31;;;;;;;7.50;6.03;;;23.70;61.00;;;;;;6225240;28;20233;-60
2021/09/23 07:13:35;;;;;;;8.30;6.33;;;24.80;57.20;;;;;;6224973;28;20233;-60
2021/09/23 07:16:38;;;;;;;11.50;6.30;;;25.50;52.40;;;;;;6225243;28;20235;-60
2021/09/23 07:19:42;;;;;;;9.77;6.67;;;26.50;50.00;;;;;;6225448;28;20212;-60
2021/09/23 07:22:45;;;;;;;6.73;6.10;;;27.50;47.10;;;;;;6225425;28;20225;-59
2021/09/23 07:25:48;;;;;;;10.87;6.93;;;28.50;44.40;;;;;;6225478;28;20200;-60
2021/09/23 07:28:53;;;;;;;13.03;6.73;;;29.80;42.40;;;;;;6225265;28;20201;-60
2021/09/23 07:31:57;;;;;;;11.17;7.70;;;31.00;39.20;;;;;;6226132;28;20243;-60
2021/09/23 07:35:00;;;;;;;9.53;8.23;;;31.90;37.00;;;;;;6224844;28;20708;-60
2021/09/23 07:38:04;;;;;;;9.30;7.03;;;32.50;35.20;;;;;;6224358;28;20225;-60
2021/09/23 07:41:07;;;;;;;7.47;6.50;;;33.40;33.40;;;;;;6221995;28;20225;-61
2021/09/23 07:44:15;;;;;;;10.93;7.75;;;34.20;32.20;;;;;;6215203;28;20228;-61
2021/09/23 07:47:18;;;;;;;10.80;6.90;;;35.00;30.80;;;;;;6224846;28;20228;-61
2021/09/23 07:50:21;;;;;;;12.57;7.55;;;35.70;29.90;;;;;;6223186;28;20236;-61
2021/09/23 07:53:25;;;;;;;10.40;6.80;;;36.50;28.60;;;;;;6190258;28;20229;-61
2021/09/23 07:56:29;;;;;;;14.07;7.45;;;37.20;27.80;;;;;;6200320;28;20320;-62
2021/09/23 07:59:33;;;;;;;9.02;6.90;;;37.70;26.80;;;;;;6199831;28;20290;-62
2021/09/23 08:02:37;;;;;;;9.98;6.70;;;38.30;26.20;;;;;;6203945;28;20229;-62
2021/09/23 08:05:41;;;;;;;12.10;7.97;;;38.90;25.40;;;;;;6206632;28;20233;-63
2021/09/23 08:08:44;;;;;;;10.27;7.78;;;39.80;24.60;;;;;;6204918;28;20316;-63
2021/09/23 08:11:47;;;;;;;10.80;6.80;;;40.20;24.40;;;;;;6204811;28;20312;-63
2021/09/23 08:14:52;;;;;;;10.23;6.95;;;40.70;24.00;;;;;;6204662;28;20225;-62
2021/09/23 08:17:55;;;;;;;11.35;7.90;;;40.70;23.30;;;;;;6180779;28;20681;-63
2021/09/23 08:20:58;;;;;;;11.57;7.28;;;41.20;23.00;;;;;;6180089;28;20241;-62
2021/09/23 08:24:01;;;;;;;9.27;7.35;;;42.00;22.50;;;;;;6180520;28;20240;-63
2021/09/23 08:27:05;;;;;;;10.43;7.35;;;42.50;22.00;;;;;;6180302;28;20229;-64
2021/09/23 08:30:10;;;;;;;7.03;6.20;;;42.90;21.50;;;;;;6180255;28;20353;-62
2021/09/23 08:33:13;;;;;;;8.13;6.70;;;42.90;21.00;;;;;;6180216;28;20240;-59
2021/09/23 08:36:17;;;;;;;7.53;5.70;;;42.80;20.80;;;;;;6181045;28;20244;-63
2021/09/23 08:39:20;;;;;;;7.88;6.47;;;43.20;20.40;;;;;;6196203;28;20678;-61
2021/09/23 08:42:23;;;;;;;8.05;5.63;;;43.80;20.70;;;;;;6203265;28;20319;-61
2021/09/23 08:45:29;;;;;;;6.82;5.10;;;44.70;19.80;;;;;;6202569;28;20275;-61
2021/09/23 08:48:33;;;;;;;7.70;5.50;;;44.80;19.50;;;;;;6199014;28;20302;-61
2021/09/23 08:51:37;;;;;;;5.60;4.88;;;45.00;19.30;;;;;;6208146;28;20312;-61
2021/09/23 08:54:41;;;;;;;7.97;4.68;;;44.70;18.80;;;;;;6214452;28;20223;-61
2021/09/23 08:57:45;;;;;;;4.97;4.50;;;44.60;18.90;;;;;;6205206;28;20306;-61
2021/09/23 09:01:06;;;;;;;5.28;4.78;;;44.20;18.30;;;;;;6212527;28;20234;-61
2021/09/23 09:04:10;;;;;;;5.43;4.72;;;43.50;18.70;;;;;;6221565;28;20225;-59
2021/09/23 09:07:13;;;;;;;5.13;4.30;;;43.90;19.00;;;;;;6228087;28;20228;-62
2021/09/23 09:10:17;;;;;;;5.75;4.13;;;44.20;18.90;;;;;;6228356;28;20347;-62
2021/09/23 09:13:20;;;;;;;5.43;4.43;;;42.60;19.00;;;;;;6227483;28;20237;-63
2021/09/23 09:16:27;;;;;;;6.55;4.75;;;43.60;19.00;;;;;;6227893;28;20665;-63
2021/09/23 09:19:48;;;;;;;9.23;5.18;;;44.70;18.40;;;;;;6227616;28;20236;-63
2021/09/23 09:22:51;;;;;;;4.82;3.78;;;44.30;18.20;;;;;;6227836;28;20220;-63
2021/09/23 09:25:54;;;;;;;6.40;3.72;;;43.30;18.40;;;;;;6229697;28;20212;-63
2021/09/23 09:28:59;;;;;;;4.28;3.17;;;43.60;18.70;;;;;;6228543;28;20234;-63
2021/09/23 09:32:04;;;;;;;6.35;3.45;;;44.80;18.10;;;;;;6227736;28;20245;-62
2021/09/23 09:35:11;;;;;;;4.10;3.70;;;44.90;17.90;;;;;;6227829;28;20233;-66
2021/09/23 09:38:14;;;;;;;4.00;3.65;;;46.00;17.80;;;;;;6221373;28;20229;-64
2021/09/23 09:41:22;;;;;;;6.07;4.10;;;47.10;17.50;;;;;;6224091;28;20616;-62
2021/09/23 09:44:25;;;;;;;5.47;3.10;;;46.40;17.20;;;;;;6227012;28;20234;-63
2021/09/23 09:47:33;;;;;;;4.95;3.35;;;47.10;16.90;;;;;;6226642;28;20565;-62
2021/09/23 09:50:42;;;;;;;3.90;3.60;;;46.90;16.60;;;;;;6227051;28;20236;-63
2021/09/23 09:53:58;;;;;;;6.97;3.30;;;47.90;16.40;;;;;;6227387;28;20224;-63
2021/09/23 09:57:04;;;;;;;3.45;2.63;;;48.40;15.60;;;;;;6227159;28;20484;-62
2021/09/23 10:00:09;;;;;;;3.42;2.60;;;49.20;15.20;;;;;;6222667;28;20242;-62
2021/09/23 10:03:14;;;;;;;3.78;2.72;;;50.00;14.50;;;;;;6226590;28;20342;-64
2021/09/23 10:06:18;;;;;;;3.45;2.17;;;50.70;14.00;;;;;;6226483;28;20278;-64
2021/09/23 10:09:21;;;;;;;4.10;3.03;;;50.40;13.50;;;;;;6226889;28;20232;-63
2021/09/23 10:12:26;;;;;;;4.45;3.00;;;50.80;14.00;;;;;;6226880;28;20228;-64
2021/09/23 10:15:30;;;;;;;3.15;2.50;;;50.50;13.80;;;;;;6226268;28;20288;-64
2021/09/23 10:18:36;;;;;;;3.88;2.72;;;48.60;14.70;;;;;;6226703;28;20231;-64
2021/09/23 10:21:40;;;;;;;3.35;3.05;;;49.10;14.50;;;;;;6226351;28;20690;-63
2021/09/23 10:24:45;;;;;;;4.30;3.17;;;49.80;14.40;;;;;;6225349;28;20687;-65
2021/09/23 10:27:59;;;;;;;3.55;2.78;;;49.20;14.30;;;;;;6226015;28;20236;-64
2021/09/23 10:31:08;;;;;;;3.13;2.75;;;48.00;14.40;;;;;;6225675;28;20332;-63
2021/09/23 10:34:17;;;;;;;4.72;4.32;;;46.20;15.30;;;;;;6225740;28;20694;-65
2021/09/23 10:37:20;;;;;;;3.65;2.58;;;45.20;15.70;;;;;;6225730;28;20579;-64
2021/09/23 10:40:24;;;;;;;3.25;2.60;;;45.20;16.00;;;;;;6211256;28;20231;-64
2021/09/23 10:43:27;;;;;;;3.45;2.65;;;44.60;16.10;;;;;;6215191;28;20218;-64
2021/09/23 10:46:30;;;;;;;5.50;2.33;;;44.30;16.20;;;;;;6213163;28;20746;-62
2021/09/23 10:49:35;;;;;;;3.33;2.65;;;43.70;16.90;;;;;;6215450;28;20230;-62
2021/09/23 10:52:42;;;;;;;5.18;2.22;;;44.00;16.70;;;;;;6215394;28;20229;-62
2021/09/23 10:55:48;;;;;;;2.92;2.63;;;43.70;16.70;;;;;;6226327;28;20286;-62
2021/09/23 10:58:52;;;;;;;3.95;3.20;;;42.50;17.00;;;;;;6226786;28;20211;-62
2021/09/23 11:01:55;;;;;;;5.65;2.90;;;42.60;17.50;;;;;;6227233;28;20239;-62
2021/09/23 11:05:11;;;;;;;3.10;2.75;;;42.20;17.70;;;;;;6227521;28;20741;-62
2021/09/23 11:08:17;;;;;;;3.85;2.72;;;40.80;18.40;;;;;;6229085;28;20232;-62
2021/09/23 11:11:21;;;;;;;2.72;2.22;;;40.70;18.40;;;;;;6226362;28;20310;-63
2021/09/23 11:14:29;;;;;;;4.70;3.75;;;41.30;18.50;;;;;;6226028;28;20295;-62
2021/09/23 11:17:33;;;;;;;6.57;2.70;;;41.80;18.00;;;;;;6225761;28;20236;-62
2021/09/23 11:20:44;;;;;;;4.68;2.58;;;40.70;18.20;;;;;;6225625;28;20232;-63
2021/09/23 11:23:48;;;;;;;3.20;2.90;;;40.90;18.80;;;;;;6225599;28;20235;-63
2021/09/23 11:26:52;;;;;;;2.88;2.58;;;40.30;19.10;;;;;;6226653;28;20232;-62
2021/09/23 11:29:55;;;;;;;2.78;2.58;;;39.60;19.20;;;;;;6223621;28;20224;-63
2021/09/23 11:33:00;;;;;;;2.67;2.47;;;40.60;18.80;;;;;;6220915;28;20630;-63
2021/09/23 11:36:06;;;;;;;4.18;2.40;;;40.00;19.00;;;;;;6222291;28;20228;-63
2021/09/23 11:39:20;;;;;;;3.25;2.78;;;40.00;19.40;;;;;;6210758;28;20236;-63
2021/09/23 11:42:24;;;;;;;3.30;2.63;;;41.30;18.70;;;;;;6209978;28;20233;-64
2021/09/23 11:45:31;;;;;;;3.08;2.85;;;42.50;18.10;;;;;;6227979;28;20241;-63
2021/09/23 11:48:35;;;;;;;4.70;2.80;;;42.60;18.20;;;;;;6206181;28;20685;-64
2021/09/23 11:51:40;;;;;;;3.20;2.47;;;42.70;18.00;;;;;;6224378;28;20230;-63
2021/09/23 11:54:43;;;;;;;2.92;2.70;;;41.50;18.60;;;;;;6225662;28;20302;-62
2021/09/23 11:57:46;;;;;;;3.03;2.83;;;40.20;19.10;;;;;;6222581;28;20236;-62
2021/09/23 12:00:51;;;;;;;3.42;2.47;;;40.10;19.20;;;;;;6209052;28;20231;-62
2021/09/23 12:03:54;;;;;;;2.90;2.70;;;38.90;20.20;;;;;;6209443;28;20228;-63
2021/09/23 12:07:04;;;;;;;3.95;2.78;;;38.90;20.30;;;;;;6215216;28;20557;-65
2021/09/23 12:10:11;;;;;;;3.08;2.78;;;39.60;19.90;;;;;;6211242;28;20235;-65
2021/09/23 12:13:19;;;;;;;2.72;2.50;;;39.30;20.00;;;;;;6219536;28;20228;-63
2021/09/23 12:16:29;;;;;;;3.08;2.70;;;39.80;19.90;;;;;;6212786;28;20228;-64
2021/09/23 12:19:33;;;;;;;2.67;2.47;;;40.20;19.30;;;;;;6211547;28;20240;-63
2021/09/23 12:22:38;;;;;;;2.63;2.42;;;39.90;19.50;;;;;;6217753;28;20250;-63
2021/09/23 12:25:41;;;;;;;4.68;3.25;;;39.80;19.30;;;;;;6220153;28;20210;-63
2021/09/23 12:28:54;;;;;;;4.43;3.05;;;40.40;19.60;;;;;;6215247;28;20309;-65
2021/09/23 12:32:03;;;;;;;3.30;2.97;;;39.40;19.80;;;;;;6212174;28;20240;-62
2021/09/23 12:35:16;;;;;;;3.13;2.50;;;39.80;19.90;;;;;;6214467;28;20224;-65
2021/09/23 12:38:21;;;;;;;3.10;2.78;;;39.50;20.00;;;;;;6220563;28;20311;-64
2021/09/23 12:41:24;;;;;;;4.00;3.05;;;38.70;20.40;;;;;;6219637;28;20232;-64
2021/09/23 12:44:30;;;;;;;3.83;3.25;;;39.10;20.50;;;;;;6224063;28;20247;-64
2021/09/23 12:47:45;;;;;;;4.03;2.63;;;39.30;20.30;;;;;;6214858;28;20236;-63
2021/09/23 12:50:48;;;;;;;2.88;2.58;;;39.20;19.80;;;;;;6227557;28;20290;-64
2021/09/23 12:54:20;;;;;;;3.10;2.80;;;38.20;21.10;;;;;;6213577;28;20228;-65
2021/09/23 12:57:25;;;;;;;5.22;2.90;;;37.90;21.10;;;;;;6227690;28;20706;-65
2021/09/23 13:00:30;;;;;;;5.43;2.97;;;37.60;21.50;;;;;;6211775;28;20323;-65
2021/09/23 13:03:35;;;;;;;2.90;2.70;;;37.80;21.70;;;;;;6226698;28;20232;-65
2021/09/23 13:06:38;;;;;;;3.90;2.80;;;37.40;21.70;;;;;;6227010;28;20232;-67
2021/09/23 13:10:00;;;;;;;2.60;2.40;;;38.00;21.10;;;;;;6226360;28;20354;-62
2021/09/23 13:13:05;;;;;;;4.07;3.67;;;38.70;21.20;;;;;;6212883;28;20237;-65
2021/09/23 13:16:09;;;;;;;3.42;3.13;;;36.80;22.30;;;;;;6202746;28;20249;-67
2021/09/23 13:19:12;;;;;;;3.47;2.90;;;36.20;22.80;;;;;;6203106;28;20239;-65
2021/09/23 13:22:15;;;;;;;2.78;2.58;;;35.40;23.30;;;;;;6203109;28;20252;-64
2021/09/23 13:25:20;;;;;;;2.78;2.55;;;35.20;23.80;;;;;;6203537;28;20229;-64
2021/09/23 13:28:25;;;;;;;4.90;3.50;;;34.30;24.20;;;;;;6202857;28;20248;-64
2021/09/23 13:31:34;;;;;;;3.58;3.22;;;32.60;25.50;;;;;;6202829;28;20673;-65
2021/09/23 13:34:37;;;;;;;2.90;2.55;;;31.50;26.90;;;;;;6202381;28;20577;-61
2021/09/23 13:37:42;;;;;;;3.90;2.60;;;30.40;28.00;;;;;;6202390;28;20221;-62
2021/09/23 13:40:47;;;;;;;3.67;3.33;;;28.90;30.00;;;;;;6216856;23;20242;-64
2021/09/23 13:43:50;;;;;;;4.23;3.83;;;27.90;31.80;;;;;;6226634;28;20227;-64
2021/09/23 13:46:53;;;;;;;4.37;3.40;;;26.70;34.20;;;;;;6224567;28;20309;-66
2021/09/23 13:49:56;;;;;;;5.20;3.40;;;26.10;35.00;;;;;;6226409;28;20519;-64
2021/09/23 13:53:00;;;;;;;3.50;3.20;;;25.90;35.20;;;;;;6221715;28;20235;-66
2021/09/23 13:56:05;;;;;;;3.90;3.00;;;25.60;35.60;;;;;;6195665;28;20269;-65
2021/09/23 13:59:08;;;;;;;4.03;3.73;;;25.30;37.40;;;;;;6207584;28;20225;-65
2021/09/23 14:02:11;;;;;;;4.93;3.30;;;24.70;37.60;;;;;;6212886;28;20236;-65
2021/09/23 14:05:15;;;;;;;4.27;3.07;;;24.50;38.40;;;;;;6209823;28;20241;-65
2021/09/23 14:08:21;;;;;;;5.17;3.50;;;24.00;39.20;;;;;;6205065;28;20304;-65
2021/09/23 14:11:25;;;;;;;4.87;3.57;;;23.60;39.70;;;;;;6204123;28;20229;-65
2021/09/23 14:14:28;;;;;;;4.90;3.63;;;23.50;40.20;;;;;;6203172;28;20750;-64
2021/09/23 14:17:32;;;;;;;4.93;3.70;;;23.40;40.80;;;;;;6202129;28;20234;-65
2021/09/23 14:20:55;;;;;;;3.10;2.80;;;23.30;41.50;;;;;;6203118;28;20236;-65
2021/09/23 14:23:58;;;;;;;3.60;3.27;;;23.20;41.50;;;;;;6201593;28;20229;-65
2021/09/23 14:27:04;;;;;;;4.93;3.30;;;23.20;41.80;;;;;;6209655;28;20556;-65
2021/09/23 14:30:09;;;;;;;3.20;2.90;;;23.30;41.60;;;;;;6213669;28;20221;-65
2021/09/23 14:33:12;;;;;;;5.67;2.50;;;23.10;42.40;;;;;;6214118;28;20678;-66
2021/09/23 14:36:15;;;;;;;4.40;3.43;;;22.80;43.30;;;;;;6215100;28;20221;-65
2021/09/23 14:39:19;;;;;;;3.47;3.17;;;22.80;43.60;;;;;;6211809;28;20580;-66
2021/09/23 14:42:23;;;;;;;3.40;3.10;;;22.80;44.00;;;;;;6216883;28;20279;-66
2021/09/23 14:45:27;;;;;;;3.40;2.60;;;22.70;44.30;;;;;;6201441;28;20226;-67
2021/09/23 14:48:30;;;;;;;4.40;3.00;;;22.60;44.50;;;;;;6201102;28;20248;-66
2021/09/23 14:51:33;;;;;;;9.07;3.50;;;22.60;45.00;;;;;;6220855;28;20229;-66
2021/09/23 14:54:36;;;;;;;3.50;3.20;;;22.50;45.50;;;;;;6205478;28;20237;-66
2021/09/23 14:57:41;;;;;;;5.73;2.83;;;22.50;45.90;;;;;;6200719;28;20261;-66
2021/09/23 15:00:44;;;;;;;6.87;2.80;;;22.50;45.60;;;;;;6200044;28;20742;-66
2021/09/23 15:03:48;;;;;;;5.00;3.53;;;22.50;45.80;;;;;;6200537;28;20308;-66
2021/09/23 15:06:52;;;;;;;4.03;3.37;;;22.50;46.50;;;;;;6200434;28;20264;-66
2021/09/23 15:09:55;;;;;;;3.17;2.90;;;22.40;46.50;;;;;;6202305;28;20225;-64
2021/09/23 15:12:59;;;;;;;3.77;3.30;;;22.30;46.40;;;;;;6205807;28;20244;-65
2021/09/23 15:16:03;;;;;;;4.30;3.60;;;22.40;46.90;;;;;;6205855;28;20561;-65
2021/09/23 15:19:06;;;;;;;4.13;3.30;;;22.40;46.90;;;;;;6205474;28;20256;-66
2021/09/23 15:22:09;;;;;;;3.57;3.23;;;22.40;48.00;;;;;;6207425;28;20234;-65
2021/09/23 15:25:15;;;;;;;6.50;3.53;;;22.40;47.50;;;;;;6206634;28;20233;-66
2021/09/23 15:28:19;;;;;;;6.40;3.57;;;22.30;47.60;;;;;;6219112;28;20260;-66
2021/09/23 15:31:23;;;;;;;3.60;3.03;;;22.30;47.70;;;;;;6206277;28;20308;-64
2021/09/23 15:34:26;;;;;;;3.30;3.00;;;22.40;48.00;;;;;;6205070;28;20233;-65
2021/09/23 15:37:29;;;;;;;4.33;3.27;;;22.40;48.00;;;;;;6205212;28;20237;-64
2021/09/23 15:40:35;;;;;;;3.53;3.23;;;22.40;48.30;;;;;;6205063;28;20238;-64
2021/09/23 15:43:39;;;;;;;4.50;2.97;;;22.40;48.50;;;;;;6191527;28;20237;-65
2021/09/23 15:46:43;;;;;;;3.77;3.37;;;22.40;48.50;;;;;;6181302;28;20233;-65
2021/09/23 15:49:46;;;;;;;3.90;3.50;;;22.30;48.70;;;;;;6192790;28;20197;-65
2021/09/23 15:52:51;;;;;;;3.30;3.00;;;22.30;48.80;;;;;;6227700;28;20316;-64
2021/09/23 15:55:54;;;;;;;3.20;2.90;;;22.30;49.10;;;;;;6205242;28;20206;-65
2021/09/23 15:58:59;;;;;;;3.23;3.03;;;22.20;49.20;;;;;;6204537;28;20551;-64
2021/09/23 16:02:03;;;;;;;5.60;2.60;;;22.10;49.50;;;;;;6204778;28;20229;-63